createdAt,value
2017-08-21T00:00:44.009Z,15.3
2017-08-21T00:01:43.206Z,15.4
2017-08-21T00:02:42.270Z,15.3
2017-08-21T00:03:41.849Z,15.3
2017-08-21T00:04:40.919Z,15.3
2017-08-21T00:05:40.136Z,15.3
2017-08-21T00:06:39.340Z,15.3
2017-08-21T00:07:38.528Z,15.3
2017-08-21T00:09:36.529Z,15.3
2017-08-21T00:10:36.721Z,15.4
2017-08-21T00:12:34.799Z,15.3
2017-08-21T00:13:34.260Z,15.4
2017-08-21T00:15:32.608Z,15.3
2017-08-21T00:16:31.673Z,15.3
2017-08-21T00:17:31.370Z,15.3
2017-08-21T00:18:30.452Z,15.3
2017-08-21T00:19:29.521Z,15.3
2017-08-21T00:20:29.099Z,15.3
2017-08-21T00:21:28.165Z,15.3
2017-08-21T00:23:26.750Z,15.2
2017-08-21T00:24:26.327Z,15.2
2017-08-21T00:27:23.680Z,15.3
2017-08-21T00:28:23.168Z,15.3
2017-08-21T00:29:22.354Z,15.3
2017-08-21T00:30:21.436Z,15.3
2017-08-21T00:31:21.143Z,15.3
2017-08-21T00:32:20.331Z,15.3
2017-08-21T00:33:19.520Z,15.3
2017-08-21T00:34:18.720Z,15.2
2017-08-21T00:37:16.190Z,15.3
2017-08-21T00:38:15.882Z,15.3
2017-08-21T00:40:13.950Z,15.3
2017-08-21T00:42:12.524Z,15.3
2017-08-21T00:43:11.721Z,15.3
2017-08-21T00:44:11.994Z,15.3
2017-08-21T00:45:10.559Z,15.3
2017-08-21T00:46:09.763Z,15.3
2017-08-21T00:47:08.835Z,15.2
2017-08-21T00:48:07.921Z,15.1
2017-08-21T00:49:07.605Z,15.1
2017-08-21T00:51:06.071Z,15.1
2017-08-21T00:52:05.135Z,15.2
2017-08-21T00:53:04.217Z,15.1
2017-08-21T00:54:03.561Z,15.1
2017-08-21T00:55:03.023Z,15.2
2017-08-21T00:56:02.106Z,15.1
2017-08-21T00:57:01.801Z,15.1
2017-08-21T00:57:32.329Z,15.1
2017-08-21T00:58:02.832Z,15.1
2017-08-21T00:59:00.032Z,15.2
2017-08-21T00:59:59.222Z,15.2
2017-08-21T01:01:57.808Z,15.2
2017-08-21T01:02:56.919Z,15.2
2017-08-21T01:04:55.379Z,15.1
2017-08-21T01:06:53.836Z,15.1
2017-08-21T01:09:51.799Z,15.1
2017-08-21T01:11:50.151Z,15
2017-08-21T01:12:49.611Z,15
2017-08-21T01:14:48.192Z,15
2017-08-21T01:15:47.382Z,15
2017-08-21T01:16:46.476Z,15
2017-08-21T01:17:45.666Z,15
2017-08-21T01:18:45.373Z,15
2017-08-21T01:19:44.570Z,15
2017-08-21T01:20:43.692Z,14.9
2017-08-21T01:21:42.639Z,15
2017-08-21T01:22:42.336Z,15
2017-08-21T01:23:41.528Z,15
2017-08-21T01:24:40.754Z,15
2017-08-21T01:25:11.020Z,15
2017-08-21T01:25:41.517Z,15
2017-08-21T01:26:12.032Z,15
2017-08-21T01:27:38.297Z,15
2017-08-21T01:28:08.797Z,15
2017-08-21T01:29:36.558Z,15
2017-08-21T01:30:36.129Z,15
2017-08-21T01:32:34.470Z,15
2017-08-21T01:34:32.949Z,14.8
2017-08-21T01:35:32.646Z,14.8
2017-08-21T01:36:31.353Z,14.9
2017-08-21T01:43:26.426Z,14.7
2017-08-21T01:44:25.621Z,14.6
2017-08-21T01:46:24.211Z,14.7
2017-08-21T01:47:23.424Z,14.6
2017-08-21T01:48:22.623Z,14.6
2017-08-21T01:49:21.689Z,14.6
2017-08-21T01:53:19.059Z,14.5
2017-08-21T01:54:18.254Z,14.5
2017-08-21T01:55:17.330Z,14.5
2017-08-21T01:56:16.531Z,14.5
2017-08-21T01:57:16.094Z,14.6
2017-08-21T01:58:15.275Z,14.6
2017-08-21T01:59:14.345Z,14.5
2017-08-21T02:00:13.540Z,14.6
2017-08-21T02:02:12.119Z,14.5
2017-08-21T02:03:11.312Z,14.4
2017-08-21T02:04:10.274Z,14.5
2017-08-21T02:05:09.619Z,14.5
2017-08-21T02:07:08.579Z,14.4
2017-08-21T02:08:07.656Z,14.4
2017-08-21T02:09:06.711Z,14.4
2017-08-21T02:10:05.782Z,14.3
2017-08-21T02:11:05.357Z,14.3
2017-08-21T02:14:03.318Z,14.3
2017-08-21T02:17:00.547Z,14.2
2017-08-21T02:18:00.253Z,14.2
2017-08-21T02:19:58.721Z,14.2
2017-08-21T02:20:57.929Z,14.3
2017-08-21T02:21:57.169Z,14.3
2017-08-21T02:22:56.243Z,14.3
2017-08-21T02:23:55.437Z,14.3
2017-08-21T02:24:54.509Z,14.2
2017-08-21T02:26:52.984Z,14.2
2017-08-21T02:27:52.570Z,14.2
2017-08-21T02:28:51.769Z,14.2
2017-08-21T02:29:50.826Z,14.2
2017-08-21T02:30:50.025Z,14.1
2017-08-21T02:31:49.654Z,14.1
2017-08-21T02:33:47.630Z,14
2017-08-21T02:34:47.206Z,14
2017-08-21T02:35:46.167Z,14
2017-08-21T02:36:45.760Z,14
2017-08-21T02:37:44.854Z,14
2017-08-21T02:38:43.820Z,14
2017-08-21T02:39:43.409Z,14
2017-08-21T02:41:41.766Z,13.9
2017-08-21T02:42:40.858Z,13.8
2017-08-21T02:43:40.059Z,13.8
2017-08-21T02:44:39.531Z,13.8
2017-08-21T02:45:38.600Z,13.8
2017-08-21T02:46:37.787Z,13.9
2017-08-21T02:47:37.937Z,14
2017-08-21T02:49:35.403Z,14
2017-08-21T02:50:34.993Z,14
2017-08-21T02:51:33.844Z,14
2017-08-21T02:52:33.554Z,14.1
2017-08-21T02:53:32.746Z,14
2017-08-21T02:54:31.830Z,14
2017-08-21T02:56:30.289Z,13.8
2017-08-21T02:57:29.491Z,13.8
2017-08-21T02:58:28.670Z,13.8
2017-08-21T03:00:27.113Z,14
2017-08-21T03:03:24.961Z,13.9
2017-08-21T03:05:23.537Z,14
2017-08-21T03:06:22.615Z,14
2017-08-21T03:08:21.205Z,14
2017-08-21T03:09:20.387Z,14
2017-08-21T03:10:19.580Z,14
2017-08-21T03:11:18.769Z,14
2017-08-21T03:12:17.969Z,13.9
2017-08-21T03:13:16.798Z,14
2017-08-21T03:14:16.481Z,14
2017-08-21T03:17:14.320Z,14
2017-08-21T03:18:13.391Z,13.9
2017-08-21T03:20:11.965Z,13.9
2017-08-21T03:21:11.030Z,13.8
2017-08-21T03:22:10.217Z,13.8
2017-08-21T03:23:09.298Z,13.7
2017-08-21T03:26:07.266Z,13.7
2017-08-21T03:27:06.231Z,13.8
2017-08-21T03:28:05.700Z,13.8
2017-08-21T03:29:04.894Z,13.8
2017-08-21T03:30:03.988Z,13.7
2017-08-21T03:31:03.576Z,13.8
2017-08-21T03:32:02.789Z,13.7
2017-08-21T03:34:01.135Z,13.6
2017-08-21T03:35:00.599Z,13.6
2017-08-21T03:35:59.795Z,13.6
2017-08-21T03:37:57.869Z,13.6
2017-08-21T03:38:57.061Z,13.6
2017-08-21T03:40:55.525Z,13.6
2017-08-21T03:42:54.017Z,13.6
2017-08-21T03:43:53.214Z,13.6
2017-08-21T03:44:52.409Z,13.6
2017-08-21T03:46:50.999Z,13.6
2017-08-21T03:47:49.957Z,13.6
2017-08-21T03:50:47.815Z,13.6
2017-08-21T03:51:47.395Z,13.5
2017-08-21T03:53:45.367Z,13.5
2017-08-21T03:55:43.710Z,13.5
2017-08-21T03:56:43.281Z,13.5
2017-08-21T03:57:42.467Z,13.5
2017-08-21T03:59:41.055Z,13.5
2017-08-21T04:00:39.998Z,13.6
2017-08-21T04:02:38.573Z,13.5
2017-08-21T04:04:37.036Z,13.4
2017-08-21T04:05:36.111Z,13.4
2017-08-21T04:07:34.562Z,13.3
2017-08-21T04:09:33.048Z,13.3
2017-08-21T04:10:32.496Z,13.3
2017-08-21T04:11:31.678Z,13.2
2017-08-21T04:14:29.534Z,13.3
2017-08-21T04:15:28.615Z,13.4
2017-08-21T04:16:27.817Z,13.4
2017-08-21T04:17:27.010Z,13.3
2017-08-21T04:18:26.090Z,13.3
2017-08-21T04:19:25.547Z,13.3
2017-08-21T04:21:23.657Z,13.5
2017-08-21T04:22:22.848Z,13.5
2017-08-21T04:23:22.544Z,13.4
2017-08-21T04:26:19.798Z,13.5
2017-08-21T04:27:19.369Z,13.5
2017-08-21T04:31:16.210Z,13.6
2017-08-21T04:32:15.181Z,13.6
2017-08-21T04:34:13.761Z,13.7
2017-08-21T04:35:12.959Z,13.7
2017-08-21T04:36:12.144Z,13.7
2017-08-21T04:37:11.206Z,13.8
2017-08-21T04:38:10.400Z,13.8
2017-08-21T04:39:09.606Z,13.8
2017-08-21T04:40:09.188Z,13.8
2017-08-21T04:41:08.402Z,13.8
2017-08-21T04:42:07.591Z,13.9
2017-08-21T04:43:06.791Z,13.9
2017-08-21T04:44:05.863Z,13.9
2017-08-21T04:45:05.045Z,14
2017-08-21T04:46:04.240Z,13.9
2017-08-21T04:47:03.316Z,13.9
2017-08-21T04:49:01.657Z,14
2017-08-21T04:50:01.254Z,14.1
2017-08-21T04:51:00.319Z,14.3
2017-08-21T04:51:59.505Z,14.4
2017-08-21T04:52:58.686Z,14.5
2017-08-21T04:53:57.874Z,14.6
2017-08-21T04:54:57.069Z,14.6
2017-08-21T04:55:56.637Z,14.7
2017-08-21T04:56:55.711Z,14.7
2017-08-21T04:57:54.663Z,14.8
2017-08-21T04:58:54.343Z,14.8
2017-08-21T04:59:53.291Z,14.6
2017-08-21T05:00:52.480Z,14.7
2017-08-21T05:01:51.678Z,14.8
2017-08-21T05:03:50.156Z,15
2017-08-21T05:04:49.351Z,15.1
2017-08-21T05:05:48.547Z,15.1
2017-08-21T05:06:47.739Z,15.1
2017-08-21T05:07:46.801Z,15.1
2017-08-21T05:09:45.255Z,15.4
2017-08-21T05:10:44.595Z,15.2
2017-08-21T05:11:43.555Z,15.2
2017-08-21T05:12:43.135Z,15.1
2017-08-21T05:13:42.199Z,15.1
2017-08-21T05:14:41.361Z,15.3
2017-08-21T05:15:41.063Z,15.3
2017-08-21T05:16:40.124Z,15.5
2017-08-21T05:17:39.312Z,15.5
2017-08-21T05:18:38.507Z,15.5
2017-08-21T05:19:37.463Z,15.4
2017-08-21T05:20:37.039Z,15.3
2017-08-21T05:21:35.994Z,15.3
2017-08-21T05:22:35.491Z,15.3
2017-08-21T05:23:34.557Z,15.3
2017-08-21T05:24:33.624Z,15.3
2017-08-21T05:25:32.815Z,15.5
2017-08-21T05:26:31.796Z,15.5
2017-08-21T05:27:31.253Z,15.5
2017-08-21T05:28:30.780Z,15.6
2017-08-21T05:30:29.304Z,15.6
2017-08-21T05:31:28.380Z,15.6
2017-08-21T05:32:27.578Z,15.8
2017-08-21T05:33:26.654Z,16
2017-08-21T05:34:26.112Z,16
2017-08-21T05:36:24.683Z,16.4
2017-08-21T05:37:23.749Z,16.5
2017-08-21T05:38:22.939Z,16.6
2017-08-21T05:39:22.116Z,16.6
2017-08-21T05:40:21.185Z,16.8
2017-08-21T05:41:20.388Z,16.8
2017-08-21T05:42:19.586Z,16.6
2017-08-21T05:43:18.765Z,16.8
2017-08-21T05:44:18.455Z,16.9
2017-08-21T05:45:17.649Z,17.1
2017-08-21T05:46:16.716Z,17
2017-08-21T05:47:15.909Z,17.1
2017-08-21T05:48:15.107Z,17.2
2017-08-21T05:49:14.176Z,17.3
2017-08-21T05:51:12.620Z,16.7
2017-08-21T05:52:12.074Z,16.9
2017-08-21T05:53:11.158Z,17.1
2017-08-21T05:54:10.349Z,17.3
2017-08-21T05:55:09.550Z,17.5
2017-08-21T05:56:08.627Z,17.1
2017-08-21T05:57:08.334Z,17
2017-08-21T05:58:07.534Z,17
2017-08-21T05:59:06.492Z,17
2017-08-21T06:00:05.675Z,17.3
2017-08-21T06:01:04.868Z,17.5
2017-08-21T06:02:04.472Z,17.7
2017-08-21T06:03:03.658Z,17.6
2017-08-21T06:04:02.849Z,17.7
2017-08-21T06:05:01.821Z,17.9
2017-08-21T06:06:01.028Z,18
2017-08-21T06:07:00.220Z,18.1
2017-08-21T06:08:58.807Z,18
2017-08-21T06:09:57.762Z,18
2017-08-21T06:10:57.454Z,18
2017-08-21T06:11:56.526Z,18.1
2017-08-21T06:12:55.607Z,18.1
2017-08-21T06:13:54.677Z,18.2
2017-08-21T06:14:54.134Z,18.1
2017-08-21T06:15:53.197Z,18.1
2017-08-21T06:16:52.893Z,18.2
2017-08-21T06:17:52.088Z,18.2
2017-08-21T06:18:51.278Z,18.3
2017-08-21T06:19:50.347Z,18.2
2017-08-21T06:20:49.422Z,18.3
2017-08-21T06:21:48.771Z,18.3
2017-08-21T06:22:47.848Z,18.4
2017-08-21T06:23:47.567Z,18.6
2017-08-21T06:24:46.518Z,18.7
2017-08-21T06:25:45.593Z,18.8
2017-08-21T06:27:44.179Z,19.1
2017-08-21T06:28:43.761Z,19
2017-08-21T06:29:42.948Z,18.9
2017-08-21T06:30:42.159Z,18.8
2017-08-21T06:31:41.002Z,19.1
2017-08-21T06:32:40.691Z,19.1
2017-08-21T06:33:39.886Z,19.1
2017-08-21T06:34:39.074Z,19.3
2017-08-21T06:35:38.262Z,19.3
2017-08-21T06:36:37.454Z,19.2
2017-08-21T06:37:36.654Z,19.1
2017-08-21T06:39:35.118Z,19.3
2017-08-21T06:40:34.197Z,19.5
2017-08-21T06:41:33.385Z,19.5
2017-08-21T06:44:31.349Z,19.5
2017-08-21T06:45:30.529Z,19.6
2017-08-21T06:46:29.355Z,19.7
2017-08-21T06:47:28.817Z,19.8
2017-08-21T06:47:59.079Z,19.8
2017-08-21T06:48:29.968Z,19.8
2017-08-21T06:50:27.030Z,19.6
2017-08-21T06:51:26.222Z,19.6
2017-08-21T06:53:24.817Z,19.6
2017-08-21T06:55:22.909Z,19.8
2017-08-21T06:56:21.985Z,19.6
2017-08-21T06:57:21.565Z,19.6
2017-08-21T06:58:20.761Z,19.8
2017-08-21T06:58:51.265Z,19.8
2017-08-21T06:59:21.422Z,19.8
2017-08-21T06:59:52.308Z,19.8
2017-08-21T07:00:22.810Z,19.9
2017-08-21T07:00:53.184Z,19.9
2017-08-21T07:01:23.689Z,19.9
2017-08-21T07:01:54.205Z,19.9
2017-08-21T07:03:17.052Z,20
2017-08-21T07:04:16.132Z,20.1
2017-08-21T07:05:15.591Z,20.2
2017-08-21T07:06:14.552Z,20
2017-08-21T07:07:14.008Z,20
2017-08-21T07:08:13.210Z,20.1
2017-08-21T07:09:12.294Z,20
2017-08-21T07:10:11.992Z,19.9
2017-08-21T07:11:11.202Z,19.7
2017-08-21T07:12:10.043Z,19.8
2017-08-21T07:13:09.732Z,19.9
2017-08-21T07:14:08.804Z,19.7
2017-08-21T07:15:08.012Z,19.9
2017-08-21T07:16:07.207Z,19.9
2017-08-21T07:17:06.780Z,19.9
2017-08-21T07:19:05.359Z,20.3
2017-08-21T07:21:03.824Z,20.2
2017-08-21T07:22:02.908Z,20.4
2017-08-21T07:24:01.497Z,20.4
2017-08-21T07:25:00.836Z,20.5
2017-08-21T07:26:00.036Z,20.4
2017-08-21T07:26:59.230Z,20.4
2017-08-21T07:27:58.427Z,19.8
2017-08-21T07:29:57.006Z,19.3
2017-08-21T07:30:56.585Z,19.2
2017-08-21T07:31:55.797Z,18.9
2017-08-21T07:32:54.986Z,18.9
2017-08-21T07:33:54.195Z,18.7
2017-08-21T07:34:53.384Z,18.8
2017-08-21T07:36:51.856Z,19.1
2017-08-21T07:37:50.972Z,19.3
2017-08-21T07:38:50.663Z,19.6
2017-08-21T07:39:49.867Z,19.8
2017-08-21T07:40:49.067Z,19.8
2017-08-21T07:41:19.453Z,19.8
2017-08-21T07:43:46.474Z,20.2
2017-08-21T07:45:45.439Z,20.4
2017-08-21T07:46:44.509Z,20.6
2017-08-21T07:47:44.076Z,20.8
2017-08-21T07:48:43.292Z,20.7
2017-08-21T07:49:42.245Z,20.6
2017-08-21T07:52:40.095Z,20.6
2017-08-21T07:53:39.290Z,20.6
2017-08-21T07:54:38.991Z,20.6
2017-08-21T07:57:36.450Z,20.7
2017-08-21T07:58:35.909Z,20.7
2017-08-21T07:59:35.097Z,20.7
2017-08-21T08:00:34.289Z,20.8
2017-08-21T08:01:33.745Z,20.8
2017-08-21T08:02:32.817Z,20.5
2017-08-21T08:03:32.020Z,20.5
2017-08-21T08:04:31.597Z,20.5
2017-08-21T08:05:30.789Z,20.3
2017-08-21T08:06:29.988Z,20.3
2017-08-21T08:07:29.182Z,20.6
2017-08-21T08:08:28.870Z,20.7
2017-08-21T08:10:26.819Z,20.3
2017-08-21T08:11:26.409Z,20.1
2017-08-21T08:13:24.871Z,19.7
2017-08-21T08:14:23.955Z,19.6
2017-08-21T08:15:23.673Z,19.6
2017-08-21T08:16:22.871Z,19.6
2017-08-21T08:18:21.335Z,19.3
2017-08-21T08:19:20.550Z,19.2
2017-08-21T08:21:19.011Z,19.2
2017-08-21T08:22:18.474Z,19
2017-08-21T08:23:17.553Z,19
2017-08-21T08:25:16.523Z,19.3
2017-08-21T08:26:15.593Z,19.3
2017-08-21T08:27:15.048Z,19.9
2017-08-21T08:28:14.136Z,20
2017-08-21T08:29:13.329Z,20.1
2017-08-21T08:30:13.059Z,19.9
2017-08-21T08:32:11.393Z,19.4
2017-08-21T08:34:09.838Z,18.9
2017-08-21T08:35:09.071Z,18.8
2017-08-21T08:36:08.146Z,18.8
2017-08-21T08:37:07.722Z,19
2017-08-21T08:38:06.678Z,19.2
2017-08-21T08:39:06.168Z,19.5
2017-08-21T08:40:05.860Z,19.6
2017-08-21T08:41:04.829Z,19.4
2017-08-21T08:42:03.909Z,19.3
2017-08-21T08:43:03.370Z,19.1
2017-08-21T08:44:02.344Z,19
2017-08-21T08:45:01.809Z,19
2017-08-21T08:46:01.398Z,19.4
2017-08-21T08:47:59.740Z,19.9
2017-08-21T08:49:58.197Z,20.1
2017-08-21T08:50:57.885Z,20.3
2017-08-21T08:52:56.353Z,20.2
2017-08-21T08:53:55.602Z,20.2
2017-08-21T08:54:54.794Z,20
2017-08-21T08:55:54.388Z,19.9
2017-08-21T08:56:53.242Z,19.6
2017-08-21T08:57:52.720Z,19.6
2017-08-21T08:58:52.171Z,19.6
2017-08-21T08:59:51.365Z,19.8
2017-08-21T09:00:50.564Z,20
2017-08-21T09:01:50.275Z,20
2017-08-21T09:03:48.635Z,20
2017-08-21T09:04:47.713Z,20
2017-08-21T09:06:46.555Z,20
2017-08-21T09:07:45.395Z,20
2017-08-21T09:08:44.860Z,19.8
2017-08-21T09:09:44.556Z,19.8
2017-08-21T09:10:43.756Z,19.7
2017-08-21T09:11:42.716Z,19.8
2017-08-21T09:12:42.412Z,20.1
2017-08-21T09:13:41.368Z,20
2017-08-21T09:15:40.333Z,20.1
2017-08-21T09:17:38.908Z,19.9
2017-08-21T09:18:09.423Z,19.9
2017-08-21T09:18:39.929Z,20
2017-08-21T09:19:10.319Z,20
2017-08-21T09:19:40.822Z,20
2017-08-21T09:20:11.092Z,20
2017-08-21T09:23:34.637Z,20.1
2017-08-21T09:24:33.824Z,20.1
2017-08-21T09:25:32.793Z,20.1
2017-08-21T09:26:32.497Z,20.2
2017-08-21T09:28:31.099Z,20.2
2017-08-21T09:31:28.829Z,19.7
2017-08-21T09:33:27.683Z,19.4
2017-08-21T09:34:26.779Z,19.3
2017-08-21T09:37:24.756Z,19.2
2017-08-21T09:38:23.829Z,19.1
2017-08-21T09:39:23.523Z,19
2017-08-21T09:40:22.699Z,19
2017-08-21T09:41:22.156Z,19
2017-08-21T09:42:21.355Z,19
2017-08-21T09:43:20.574Z,19
2017-08-21T09:44:19.651Z,19.1
2017-08-21T09:45:19.238Z,19.2
2017-08-21T09:46:18.198Z,19.3
2017-08-21T09:47:17.666Z,19.5
2017-08-21T09:48:17.375Z,19.5
2017-08-21T09:49:16.446Z,19.6
2017-08-21T09:50:15.525Z,19.8
2017-08-21T09:53:13.997Z,20.1
2017-08-21T09:55:12.460Z,20
2017-08-21T09:56:11.650Z,20
2017-08-21T09:58:10.123Z,19.9
2017-08-21T10:00:08.726Z,19.9
2017-08-21T10:01:08.307Z,19.9
2017-08-21T10:02:07.150Z,19.9
2017-08-21T10:05:05.509Z,20.1
2017-08-21T10:06:04.466Z,20.1
2017-08-21T10:10:01.828Z,19.6
2017-08-21T10:10:32.340Z,19.6
2017-08-21T10:12:00.624Z,19.6
2017-08-21T10:12:59.826Z,19.6
2017-08-21T10:18:55.728Z,19.8
2017-08-21T10:19:55.422Z,19.8
2017-08-21T10:20:54.620Z,19.8
2017-08-21T10:23:52.593Z,19.7
2017-08-21T10:24:51.666Z,19.7
2017-08-21T10:25:51.117Z,19.7
2017-08-21T10:26:50.314Z,19.7
2017-08-21T10:27:49.274Z,19.7
2017-08-21T10:29:48.131Z,19.8
2017-08-21T10:30:47.821Z,19.9
2017-08-21T10:31:47.041Z,20
2017-08-21T10:32:46.000Z,20
2017-08-21T10:34:45.090Z,19.9
2017-08-21T10:35:44.175Z,19.8
2017-08-21T10:36:43.259Z,19.7
2017-08-21T10:37:42.850Z,19.6
2017-08-21T10:38:41.918Z,19.6
2017-08-21T10:39:41.494Z,19.6
2017-08-21T10:41:39.838Z,19.8
2017-08-21T10:42:39.410Z,19.9
2017-08-21T10:45:37.263Z,20
2017-08-21T10:48:35.504Z,20.1
2017-08-21T10:49:34.460Z,20.1
2017-08-21T10:50:34.149Z,20.1
2017-08-21T10:51:33.250Z,20.1
2017-08-21T10:53:32.107Z,20.1
2017-08-21T10:54:31.311Z,20.1
2017-08-21T10:55:30.503Z,20
2017-08-21T10:56:30.214Z,20
2017-08-21T10:58:28.688Z,20
2017-08-21T10:59:27.759Z,19.9
2017-08-21T11:00:27.220Z,19.8
2017-08-21T11:01:26.413Z,19.8
2017-08-21T11:02:25.991Z,19.8
2017-08-21T11:03:25.068Z,19.9
2017-08-21T11:04:24.532Z,19.9
2017-08-21T11:05:23.999Z,19.9
2017-08-21T11:05:54.389Z,19.9
2017-08-21T11:06:24.777Z,20
2017-08-21T11:06:55.273Z,20
2017-08-21T11:07:25.672Z,20
2017-08-21T11:08:21.722Z,20
2017-08-21T11:10:20.564Z,20.1
2017-08-21T11:11:20.145Z,20
2017-08-21T11:12:19.352Z,20
2017-08-21T11:13:18.315Z,20.1
2017-08-21T11:14:18.008Z,20.1
2017-08-21T11:15:17.074Z,20.2
2017-08-21T11:17:15.656Z,20
2017-08-21T11:18:15.360Z,20
2017-08-21T11:19:14.330Z,20.1
2017-08-21T11:20:13.928Z,20.1
2017-08-21T11:21:13.012Z,20
2017-08-21T11:22:12.484Z,20.1
2017-08-21T11:23:11.672Z,20.1
2017-08-21T11:27:08.912Z,20.2
2017-08-21T11:29:07.982Z,20.2
2017-08-21T11:31:06.579Z,20.1
2017-08-21T11:32:05.766Z,20.1
2017-08-21T11:33:05.448Z,20.1
2017-08-21T11:34:04.634Z,20.1
2017-08-21T11:35:03.724Z,20.1
2017-08-21T11:37:02.694Z,20.1
2017-08-21T11:38:01.785Z,20.1
2017-08-21T11:38:32.297Z,20.1
2017-08-21T11:39:02.570Z,20.3
2017-08-21T11:40:00.662Z,20.4
2017-08-21T11:40:59.747Z,20.5
2017-08-21T11:41:59.329Z,20.5
2017-08-21T11:42:58.535Z,20.6
2017-08-21T11:43:57.609Z,20.6
2017-08-21T11:44:57.311Z,20.6
2017-08-21T11:45:56.507Z,20.7
2017-08-21T11:46:56.108Z,20.8
2017-08-21T11:47:55.189Z,20.7
2017-08-21T11:48:54.893Z,20.6
2017-08-21T11:49:54.091Z,20.4
2017-08-21T11:51:52.563Z,20.3
2017-08-21T11:52:52.146Z,20.3
2017-08-21T11:53:51.337Z,20.3
2017-08-21T11:54:50.535Z,20.3
2017-08-21T11:55:50.122Z,20.4
2017-08-21T11:56:49.073Z,20.4
2017-08-21T11:58:47.912Z,20.1
2017-08-21T12:00:46.650Z,20.2
2017-08-21T12:01:46.106Z,20.2
2017-08-21T12:02:45.564Z,20.2
2017-08-21T12:03:44.762Z,20.2
2017-08-21T12:04:43.967Z,20.3
2017-08-21T12:05:43.299Z,20.3
2017-08-21T12:06:42.869Z,20.3
2017-08-21T12:08:41.459Z,20.1
2017-08-21T12:09:40.647Z,19.9
2017-08-21T12:10:40.232Z,19.9
2017-08-21T12:11:39.418Z,20
2017-08-21T12:12:38.988Z,19.9
2017-08-21T12:13:37.943Z,19.9
2017-08-21T12:16:36.308Z,19.9
2017-08-21T12:17:35.516Z,19.9
2017-08-21T12:18:35.217Z,19.9
2017-08-21T12:19:34.290Z,19.9
2017-08-21T12:20:33.357Z,19.9
2017-08-21T12:24:30.995Z,19.8
2017-08-21T12:25:30.059Z,19.8
2017-08-21T12:26:29.644Z,19.7
2017-08-21T12:27:29.251Z,19.6
2017-08-21T12:28:28.446Z,19.7
2017-08-21T12:29:27.528Z,19.7
2017-08-21T12:31:26.619Z,19.6
2017-08-21T12:32:25.715Z,19.7
2017-08-21T12:33:25.293Z,19.6
2017-08-21T12:34:24.267Z,19.7
2017-08-21T12:35:23.845Z,19.8
2017-08-21T12:36:22.934Z,19.8
2017-08-21T12:37:22.632Z,19.8
2017-08-21T12:38:21.835Z,19.8
2017-08-21T12:39:20.907Z,19.9
2017-08-21T12:40:20.598Z,20
2017-08-21T12:41:19.675Z,19.9
2017-08-21T12:42:19.246Z,19.9
2017-08-21T12:43:18.311Z,19.9
2017-08-21T12:44:17.763Z,19.9
2017-08-21T12:45:16.825Z,19.9
2017-08-21T12:46:16.411Z,19.8
2017-08-21T12:47:15.635Z,19.8
2017-08-21T12:47:46.019Z,19.8
2017-08-21T12:49:14.556Z,19.7
2017-08-21T12:50:13.508Z,19.7
2017-08-21T12:51:13.205Z,19.6
2017-08-21T12:52:12.657Z,19.6
2017-08-21T12:53:11.885Z,19.6
2017-08-21T12:54:10.958Z,19.6
2017-08-21T12:55:10.293Z,19.6
2017-08-21T12:56:09.878Z,19.6
2017-08-21T12:57:09.067Z,19.6
2017-08-21T12:58:08.772Z,19.5
2017-08-21T12:59:07.964Z,19.5
2017-08-21T13:00:07.163Z,19.5
2017-08-21T13:01:06.857Z,19.6
2017-08-21T13:02:06.076Z,19.6
2017-08-21T13:03:05.268Z,19.5
2017-08-21T13:04:04.465Z,19.5
2017-08-21T13:05:03.935Z,19.5
2017-08-21T13:06:03.008Z,19.5
2017-08-21T13:07:02.355Z,19.5
2017-08-21T13:08:01.942Z,19.6
2017-08-21T13:09:01.131Z,19.7
2017-08-21T13:10:00.819Z,19.6
2017-08-21T13:10:59.895Z,19.6
2017-08-21T13:12:58.849Z,19.6
2017-08-21T13:13:57.923Z,19.6
2017-08-21T13:14:57.383Z,19.6
2017-08-21T13:15:56.222Z,19.6
2017-08-21T13:16:55.813Z,19.7
2017-08-21T13:17:55.503Z,19.8
2017-08-21T13:18:54.450Z,19.8
2017-08-21T13:19:54.031Z,19.8
2017-08-21T13:20:53.602Z,19.9
2017-08-21T13:21:52.781Z,19.9
2017-08-21T13:22:51.853Z,19.9
2017-08-21T13:23:51.427Z,19.8
2017-08-21T13:25:49.905Z,19.8
2017-08-21T13:26:49.489Z,19.8
2017-08-21T13:27:48.949Z,19.8
2017-08-21T13:28:48.154Z,19.8
2017-08-21T13:30:47.013Z,19.8
2017-08-21T13:31:46.094Z,19.8
2017-08-21T13:32:45.562Z,19.8
2017-08-21T13:33:45.025Z,19.8
2017-08-21T13:34:44.104Z,19.8
2017-08-21T13:35:43.675Z,19.8
2017-08-21T13:36:42.750Z,19.8
2017-08-21T13:37:42.340Z,19.9
2017-08-21T13:38:41.538Z,19.8
2017-08-21T13:40:40.626Z,19.8
2017-08-21T13:41:39.583Z,19.8
2017-08-21T13:42:39.290Z,19.8
2017-08-21T13:43:38.477Z,19.9
2017-08-21T13:44:37.972Z,20
2017-08-21T13:45:37.528Z,20
2017-08-21T13:46:36.826Z,20
2017-08-21T13:48:35.170Z,20
2017-08-21T13:49:34.654Z,20
2017-08-21T13:50:33.729Z,20
2017-08-21T13:51:33.195Z,20
2017-08-21T13:52:32.667Z,20
2017-08-21T13:53:31.736Z,20
2017-08-21T13:54:31.210Z,20
2017-08-21T13:55:30.909Z,20
2017-08-21T13:56:29.991Z,20.1
2017-08-21T13:57:29.588Z,20
2017-08-21T13:58:28.662Z,20
2017-08-21T13:59:28.128Z,20.1
2017-08-21T14:00:27.213Z,20.1
2017-08-21T14:01:26.923Z,20.1
2017-08-21T14:02:26.112Z,20.1
2017-08-21T14:03:25.694Z,20.1
2017-08-21T14:04:24.764Z,20.1
2017-08-21T14:05:24.220Z,20.1
2017-08-21T14:06:23.570Z,20.1
2017-08-21T14:07:23.151Z,20.2
2017-08-21T14:08:22.611Z,20.3
2017-08-21T14:09:21.679Z,20.3
2017-08-21T14:10:20.870Z,20.3
2017-08-21T14:11:20.556Z,20.3
2017-08-21T14:12:19.628Z,20.3
2017-08-21T14:14:18.726Z,20.3
2017-08-21T14:15:17.564Z,20.4
2017-08-21T14:16:17.027Z,20.3
2017-08-21T14:17:16.732Z,20.3
2017-08-21T14:19:15.199Z,20.3
2017-08-21T14:20:14.545Z,20.3
2017-08-21T14:21:14.246Z,20.3
2017-08-21T14:23:12.704Z,20.3
2017-08-21T14:24:12.409Z,20.3
2017-08-21T14:25:11.495Z,20.3
2017-08-21T14:26:11.195Z,20.2
2017-08-21T14:27:10.384Z,20.2
2017-08-21T14:28:09.574Z,20.2
2017-08-21T14:29:09.271Z,20.2
2017-08-21T14:30:08.361Z,20.1
2017-08-21T14:31:07.940Z,20.1
2017-08-21T14:32:07.013Z,20.1
2017-08-21T14:33:06.708Z,20.1
2017-08-21T14:34:05.550Z,20.1
2017-08-21T14:35:05.025Z,20.1
2017-08-21T14:36:04.495Z,20.1
2017-08-21T14:37:04.091Z,20.1
2017-08-21T14:38:03.330Z,20
2017-08-21T14:39:02.924Z,20
2017-08-21T14:40:01.884Z,20
2017-08-21T14:41:01.371Z,20
2017-08-21T14:42:00.961Z,20
2017-08-21T14:43:00.540Z,20.1
2017-08-21T14:43:59.754Z,20.1
2017-08-21T14:44:58.708Z,20.1
2017-08-21T14:45:58.435Z,20.1
2017-08-21T14:46:57.905Z,20.1
2017-08-21T14:47:57.162Z,20
2017-08-21T14:48:56.745Z,20
2017-08-21T14:49:55.822Z,20
2017-08-21T14:50:55.400Z,20
2017-08-21T14:51:54.472Z,20
2017-08-21T14:52:53.802Z,20
2017-08-21T14:53:53.139Z,20
2017-08-21T14:54:53.086Z,19.9
2017-08-21T14:55:52.554Z,19.9
2017-08-21T14:56:51.511Z,19.9
2017-08-21T14:57:51.215Z,19.8
2017-08-21T14:58:50.290Z,19.8
2017-08-21T14:59:49.861Z,19.8
2017-08-21T15:00:48.927Z,19.9
2017-08-21T15:01:48.169Z,19.9
2017-08-21T15:02:47.759Z,20
2017-08-21T15:03:47.334Z,20
2017-08-21T15:04:47.039Z,20
2017-08-21T15:05:46.124Z,20.1
2017-08-21T15:06:45.696Z,20.1
2017-08-21T15:07:44.773Z,20.1
2017-08-21T15:08:14.925Z,20.1
2017-08-21T15:08:45.698Z,20.1
2017-08-21T15:09:16.074Z,20.1
2017-08-21T15:10:42.828Z,20.3
2017-08-21T15:11:42.404Z,20.3
2017-08-21T15:12:41.997Z,20.3
2017-08-21T15:13:41.099Z,20.3
2017-08-21T15:14:40.678Z,20.3
2017-08-21T15:15:39.902Z,20.3
2017-08-21T15:16:39.488Z,20.4
2017-08-21T15:18:38.083Z,20.4
2017-08-21T15:19:37.545Z,20.5
2017-08-21T15:20:37.255Z,20.5
2017-08-21T15:21:36.222Z,20.3
2017-08-21T15:24:34.702Z,20.2
2017-08-21T15:25:33.899Z,20.2
2017-08-21T15:26:33.486Z,20.2
2017-08-21T15:27:32.330Z,20.2
2017-08-21T15:28:31.792Z,20.2
2017-08-21T15:29:31.476Z,20.2
2017-08-21T15:30:30.541Z,20.2
2017-08-21T15:31:30.250Z,20.6
2017-08-21T15:32:29.326Z,20.8
2017-08-21T15:33:29.019Z,21.1
2017-08-21T15:34:28.367Z,21
2017-08-21T15:35:27.818Z,21
2017-08-21T15:36:27.024Z,20.8
2017-08-21T15:37:26.606Z,20.7
2017-08-21T15:38:25.805Z,20.5
2017-08-21T15:39:25.510Z,20.5
2017-08-21T15:40:24.587Z,20.5
2017-08-21T15:41:24.274Z,20.5
2017-08-21T15:42:23.474Z,20.5
2017-08-21T15:43:22.672Z,20.5
2017-08-21T15:44:22.371Z,20.5
2017-08-21T15:45:21.454Z,20.6
2017-08-21T15:46:21.028Z,20.6
2017-08-21T15:47:20.481Z,20.6
2017-08-21T15:48:20.067Z,20.6
2017-08-21T15:51:17.926Z,20.5
2017-08-21T15:52:17.500Z,20.5
2017-08-21T15:53:16.687Z,20.5
2017-08-21T15:54:15.772Z,20.3
2017-08-21T15:55:15.349Z,20.3
2017-08-21T15:56:15.071Z,20.3
2017-08-21T15:59:13.045Z,20.3
2017-08-21T16:00:12.817Z,20.3
2017-08-21T16:01:12.010Z,20.2
2017-08-21T16:02:11.084Z,20.2
2017-08-21T16:03:10.549Z,20.2
2017-08-21T16:04:09.632Z,20.1
2017-08-21T16:06:08.727Z,20.1